^^
Station Historical Data
Daily Summary for January 7, 2018 Units:  English    Metric   Both
« Previous Day
Next Day »
Daily Weekly Monthly Yearly Custom
  High: Low: Average:
Temperature: TemperatureF °F 70.2 °F 76.9 °F
Dew Point: DewpointF °F 40.6 °F 42.6 °F
Humidity: Humidity% 23% 29%
Wind Speed: WindSpeedMPHmph -999.9mph -16.1mph
Wind Gust: WindSpeedGustMPHmph - -
Wind- -
Pressure: PressureIn in 30.09 in -
Precipitation: 0.00 in    
Historical Graphs
 
 
Tabular Data for January 7, 2018
Time Temperature Dew Point Pressure Wind Wind Speed Wind Gust Humidity Rainfall Rate (Hourly) solar Conditions
TemperatureF °F DewpointF °F PressureIn in Calm     Humidity% HourlyPrecipIn in SoftwareType W/m2 Conditions
08:24 72.0 °F 45.0 °F 30.11 in North -999.9 mph -999.0 mph 38% 0.00 in meteobridge W/m2
08:26 72.1 °F 44.4 °F 30.11 in North -999.9 mph -999.0 mph 37% 0.00 in meteobridge W/m2
08:34 72.0 °F 44.2 °F 30.11 in SSE 4.0 mph 11.0 mph 37% 0.00 in meteobridge W/m2
08:40 72.0 °F 44.2 °F 30.12 in North 2.9 mph 17.0 mph 37% 0.00 in meteobridge W/m2
08:46 72.7 °F 44.2 °F 30.12 in North 15.0 mph 17.0 mph 36% 0.00 in meteobridge W/m2
08:52 73.8 °F 44.4 °F 30.12 in North 10.1 mph 12.0 mph 35% 0.00 in meteobridge W/m2
09:02 74.7 °F 44.4 °F 30.13 in South 12.1 mph 18.0 mph 34% 0.00 in meteobridge W/m2
09:08 74.7 °F 43.7 °F 30.12 in ESE 8.1 mph 8.1 mph 33% 0.00 in meteobridge W/m2
09:16 75.9 °F 43.9 °F 30.12 in NNE 2.9 mph 5.0 mph 32% 0.00 in meteobridge W/m2
09:22 77.7 °F 43.9 °F 30.12 in NNE 6.0 mph 7.0 mph 30% 0.00 in meteobridge W/m2
09:31 78.6 °F 42.8 °F 30.12 in NNW 15.0 mph 19.0 mph 28% 0.00 in meteobridge W/m2
09:37 77.2 °F 41.5 °F 30.13 in NNW 15.0 mph 28.0 mph 28% 0.00 in meteobridge W/m2
09:43 76.6 °F 42.1 °F 30.13 in NNW 17.0 mph 17.0 mph 29% 0.00 in meteobridge W/m2
09:49 76.5 °F 41.9 °F 30.13 in NNW 13.0 mph 17.0 mph 29% 0.00 in meteobridge W/m2
09:57 77.2 °F 41.5 °F 30.13 in NNW 8.9 mph 20.0 mph 28% 0.00 in meteobridge W/m2
10:03 77.5 °F 41.9 °F 30.13 in NW 10.1 mph 25.0 mph 28% 0.00 in meteobridge W/m2
10:09 77.5 °F 41.0 °F 30.13 in NNW 16.1 mph 17.0 mph 27% 0.00 in meteobridge W/m2
10:15 78.1 °F 41.4 °F 30.13 in North 6.9 mph 22.0 mph 27% 0.00 in meteobridge W/m2
10:21 79.2 °F 41.4 °F 30.13 in North 17.9 mph 18.0 mph 26% 0.00 in meteobridge W/m2
10:27 79.5 °F 41.5 °F 30.13 in West 4.9 mph 9.0 mph 26% 0.00 in meteobridge W/m2
10:33 79.2 °F 42.3 °F 30.13 in NNW 19.0 mph 22.0 mph 27% 0.00 in meteobridge W/m2
10:42 77.2 °F 40.6 °F 30.13 in WNW 2.0 mph 10.0 mph 27% 0.00 in meteobridge W/m2
10:48 78.6 °F 41.9 °F 30.13 in North 6.9 mph 17.0 mph 27% 0.00 in meteobridge W/m2
10:56 79.2 °F 42.3 °F 30.13 in NNW 19.9 mph 20.0 mph 27% 0.00 in meteobridge W/m2
11:18 80.4 °F 42.4 °F 30.12 in NNW 10.1 mph 24.0 mph 26% 0.00 in meteobridge W/m2
11:24 81.0 °F 42.8 °F 30.12 in WNW 6.0 mph 18.0 mph 26% 0.00 in meteobridge W/m2
11:32 81.9 °F 43.7 °F 30.12 in South 4.9 mph 12.0 mph 26% 0.00 in meteobridge W/m2
11:38 81.3 °F 43.2 °F 30.12 in South 0.9 mph 10.0 mph 26% 0.00 in meteobridge W/m2
11:40 81.3 °F 44.1 °F 30.12 in South 2.0 mph 6.0 mph 27% 0.00 in meteobridge W/m2
11:47 81.9 °F 43.7 °F 30.12 in NNW 2.0 mph 9.0 mph 26% 0.00 in meteobridge W/m2
11:53 81.5 °F 43.3 °F 30.11 in WNW 4.0 mph 19.0 mph 26% 0.00 in meteobridge W/m2
11:59 81.5 °F 43.3 °F 30.11 in NW 6.9 mph 21.0 mph 26% 0.00 in meteobridge W/m2
12:05 81.1 °F 43.0 °F 30.11 in NNE 6.9 mph 19.0 mph 26% 0.00 in meteobridge W/m2
12:11 81.1 °F 43.0 °F 30.11 in NNW 2.9 mph 9.0 mph 26% 0.00 in meteobridge W/m2
12:13 81.5 °F 43.3 °F 30.11 in NW 2.9 mph 9.0 mph 26% 0.00 in meteobridge W/m2
12:32 82.0 °F 43.7 °F 30.11 in North 8.9 mph 11.0 mph 26% 0.00 in meteobridge W/m2
12:40 83.5 °F 43.9 °F 30.11 in WNW 2.0 mph 13.0 mph 25% 0.00 in meteobridge W/m2
12:46 83.3 °F 42.8 °F 30.10 in North 15.0 mph 18.0 mph 24% 0.00 in meteobridge W/m2
12:54 83.8 °F 43.2 °F 30.10 in NNE 6.9 mph 21.0 mph 24% 0.00 in meteobridge W/m2
13:00 84.7 °F 42.8 °F 30.10 in SSE 4.0 mph 5.0 mph 23% 0.00 in meteobridge W/m2
13:11 83.5 °F 41.7 °F 30.09 in NW 2.9 mph 9.0 mph 23% 0.00 in meteobridge W/m2
13:17 82.9 °F 41.4 °F 30.09 in North 6.0 mph 10.0 mph 23% 0.00 in meteobridge W/m2
13:27 82.9 °F 41.4 °F 30.09 in NNW 2.9 mph 14.0 mph 23% 0.00 in meteobridge W/m2
13:33 82.0 °F 41.7 °F 30.09 in WSW 4.9 mph 6.0 mph 24% 0.00 in meteobridge W/m2
13:41 80.8 °F 40.6 °F 30.09 in North 4.9 mph 16.0 mph 24% 0.00 in meteobridge W/m2
13:47 80.2 °F 41.2 °F 30.09 in NNE 6.9 mph 14.0 mph 25% 0.00 in meteobridge W/m2
13:54 79.7 °F 41.7 °F 30.09 in North 12.1 mph 18.0 mph 26% 0.00 in meteobridge W/m2
14:00 78.6 °F 40.8 °F 30.09 in NNW 16.1 mph 16.1 mph 26% 0.00 in meteobridge W/m2
14:05 78.6 °F 41.9 °F 30.10 in North 4.0 mph 11.0 mph 27% 0.00 in meteobridge W/m2
14:18 75.6 °F 42.8 °F 30.12 in NNE 0.9 mph 12.0 mph 31% 0.00 in meteobridge W/m2
14:26 74.8 °F 43.9 °F 30.13 in North 4.9 mph 16.0 mph 33% 0.00 in meteobridge W/m2
14:34 74.5 °F 45.0 °F 30.15 in NE 10.1 mph 10.1 mph 35% 0.00 in meteobridge W/m2
14:42 73.0 °F 43.7 °F 30.15 in North 4.0 mph 7.0 mph 35% 0.00 in meteobridge W/m2
14:48 73.4 °F 46.2 °F 30.13 in South 4.9 mph 7.0 mph 38% 0.00 in meteobridge W/m2
14:57 73.9 °F 45.3 °F 30.12 in SE 4.9 mph 10.0 mph 36% 0.00 in meteobridge W/m2
15:03 74.7 °F 43.7 °F 30.11 in SE 0.9 mph 5.0 mph 33% 0.00 in meteobridge W/m2
15:09 76.3 °F 45.1 °F 30.10 in SE 2.0 mph 3.0 mph 33% 0.00 in meteobridge W/m2
15:17 80.2 °F 44.2 °F 30.10 in ENE 6.9 mph 11.0 mph 28% 0.00 in meteobridge W/m2
15:25 80.2 °F 43.2 °F 30.10 in NNE 6.9 mph 13.0 mph 27% 0.00 in meteobridge W/m2
15:31 79.9 °F 43.0 °F 30.10 in NNE 6.0 mph 13.0 mph 27% 0.00 in meteobridge W/m2
15:37 79.0 °F 43.2 °F 30.10 in NE 4.9 mph 6.0 mph 28% 0.00 in meteobridge W/m2
15:43 79.0 °F 43.2 °F 30.10 in ENE 2.0 mph 2.0 mph 28% 0.00 in meteobridge W/m2
15:52 79.0 °F 42.1 °F 30.10 in North 0.9 mph 7.0 mph 27% 0.00 in meteobridge W/m2
15:58 79.0 °F 42.1 °F 30.11 in NNE 2.0 mph 10.0 mph 27% 0.00 in meteobridge W/m2
16:04 79.0 °F 42.1 °F 30.10 in Calm   2.0 mph 27% 0.00 in meteobridge W/m2
16:18 79.2 °F 41.4 °F 30.10 in North 8.1 mph 11.0 mph 26% 0.00 in meteobridge W/m2
16:30 79.3 °F 42.4 °F 30.09 in NNE 6.9 mph 14.0 mph 27% 0.00 in meteobridge W/m2
16:37 79.3 °F 41.5 °F 30.09 in NNW 4.0 mph 10.0 mph 26% 0.00 in meteobridge W/m2
16:43 79.2 °F 42.3 °F 30.09 in Calm   9.0 mph 27% 0.00 in meteobridge W/m2
16:45 79.0 °F 42.1 °F 30.09 in NNW 8.1 mph 13.0 mph 27% 0.00 in meteobridge W/m2
16:51 78.6 °F 40.8 °F 30.09 in NNW 6.0 mph 9.0 mph 26% 0.00 in meteobridge W/m2
16:57 78.4 °F 41.7 °F 30.09 in WNW 2.9 mph 11.0 mph 27% 0.00 in meteobridge W/m2
17:05 78.1 °F 42.3 °F 30.09 in South 4.9 mph 5.0 mph 28% 0.00 in meteobridge W/m2
17:11 77.2 °F 42.4 °F 30.09 in South 14.1 mph 19.0 mph 29% 0.00 in meteobridge W/m2
17:17 76.5 °F 44.4 °F 30.10 in SE 13.0 mph 15.0 mph 32% 0.00 in meteobridge W/m2
17:24 75.9 °F 43.9 °F 30.11 in SSE 8.9 mph 13.0 mph 32% 0.00 in meteobridge W/m2
17:30 75.4 °F 46.6 °F 30.11 in SSE 8.9 mph 14.0 mph 36% 0.00 in meteobridge W/m2
17:36 74.5 °F 45.9 °F 30.11 in SSE 11.0 mph 16.0 mph 36% 0.00 in meteobridge W/m2
17:42 73.0 °F 45.1 °F 30.11 in South 6.0 mph 16.0 mph 37% 0.00 in meteobridge W/m2
17:48 72.7 °F 45.0 °F 30.12 in SSE 6.0 mph 13.0 mph 37% 0.00 in meteobridge W/m2
17:58 72.0 °F 45.0 °F 30.12 in South 11.0 mph 16.0 mph 38% 0.00 in meteobridge W/m2
18:06 71.2 °F 45.0 °F 30.12 in SSW 11.0 mph 17.0 mph 39% 0.00 in meteobridge W/m2
18:12 70.9 °F 45.3 °F 30.12 in SE 10.1 mph 18.0 mph 40% 0.00 in meteobridge W/m2
18:21 70.3 °F 45.5 °F 30.13 in SSE 15.0 mph 21.0 mph 41% 0.00 in meteobridge W/m2
18:29 70.2 °F 45.3 °F 30.13 in SSE 13.0 mph 13.0 mph 41% 0.00 in meteobridge W/m2
Regenstein, Windhoek, Namibia
Compliments of Weather Underground - 2.5 mb